East Keating, Pennsylvania
Current Conditions -  °F | °C
As of 5:54 PM on Sunday 21 Dec 2014 (Local Time) from KFIG Reporting Station
Clear Clear  
Wind Chill: 22°   Ceiling: Unl
Heat Index: 27°   Visibility: 8mi
Dew Point: 19°   Wind: 5mph
Humidity: 72%   Direction: 90°E
Pressure: 30.25"   Gusts: NA
Location:  41.3342°N, 77.9676°W
Report Text: KFIG 212254Z AUTO 09004KT 8SM CLR M03/M07 A3025 RMK AO2 SLP265 T10281072
Loading
Personal Weather Stations






























Interactive Weather Map New forecast layout! Learn more

10-Day Weather Forecast

Advertisements
Track Severe Weather on mobile